sensor_id;sensor_type;location;lat;lon;timestamp;temperature;humidity
43772;HTU21D;59066;54.782;32.024;2022-07-29T21:00:46;16.24;63.28
43772;HTU21D;59066;54.782;32.024;2022-07-29T21:03:14;16.39;64.66
43772;HTU21D;59066;54.782;32.024;2022-07-29T21:05:42;16.52;65.60
43772;HTU21D;59066;54.782;32.024;2022-07-29T21:08:10;16.59;66.20
43772;HTU21D;59066;54.782;32.024;2022-07-29T21:10:37;16.67;66.43
43772;HTU21D;59066;54.782;32.024;2022-07-29T21:13:05;16.74;67.39
43772;HTU21D;59066;54.782;32.024;2022-07-29T21:15:32;16.81;67.08
43772;HTU21D;59066;54.782;32.024;2022-07-29T21:18:01;16.91;67.03
43772;HTU21D;59066;54.782;32.024;2022-07-29T21:20:31;16.91;66.97
43772;HTU21D;59066;54.782;32.024;2022-07-29T21:22:59;16.94;66.83
43772;HTU21D;59066;54.782;32.024;2022-07-29T21:25:26;16.98;66.87
43772;HTU21D;59066;54.782;32.024;2022-07-29T21:27:53;17.00;66.58
43772;HTU21D;59066;54.782;32.024;2022-07-29T21:30:39;17.03;66.37
43772;HTU21D;59066;54.782;32.024;2022-07-29T21:33:07;16.98;66.36
43772;HTU21D;59066;54.782;32.024;2022-07-29T21:35:34;17.02;66.41
43772;HTU21D;59066;54.782;32.024;2022-07-29T21:38:22;16.99;66.31
43772;HTU21D;59066;54.782;32.024;2022-07-29T21:40:50;16.95;66.67
43772;HTU21D;59066;54.782;32.024;2022-07-29T21:43:18;16.95;66.48
43772;HTU21D;59066;54.782;32.024;2022-07-29T21:45:46;16.88;66.56
43772;HTU21D;59066;54.782;32.024;2022-07-29T21:48:13;17.00;66.68
43772;HTU21D;59066;54.782;32.024;2022-07-29T21:50:41;17.18;65.78
43772;HTU21D;59066;54.782;32.024;2022-07-29T21:53:09;17.03;65.70
43772;HTU21D;59066;54.782;32.024;2022-07-29T21:55:37;16.96;66.25
43772;HTU21D;59066;54.782;32.024;2022-07-29T21:58:04;16.99;66.09
43772;HTU21D;59066;54.782;32.024;2022-07-29T22:00:32;16.94;66.40
43772;HTU21D;59066;54.782;32.024;2022-07-29T22:03:01;16.79;66.85
43772;HTU21D;59066;54.782;32.024;2022-07-29T22:05:30;16.79;67.01
43772;HTU21D;59066;54.782;32.024;2022-07-29T22:07:58;16.80;66.88
43772;HTU21D;59066;54.782;32.024;2022-07-29T22:10:27;16.80;67.00
43772;HTU21D;59066;54.782;32.024;2022-07-29T22:13:46;16.80;67.03
43772;HTU21D;59066;54.782;32.024;2022-07-29T22:16:06;16.81;67.23
43772;HTU21D;59066;54.782;32.024;2022-07-29T22:18:37;17.08;66.27
43772;HTU21D;59066;54.782;32.024;2022-07-29T22:21:07;16.95;66.60
43772;HTU21D;59066;54.782;32.024;2022-07-29T22:23:35;16.95;66.60
43772;HTU21D;59066;54.782;32.024;2022-07-29T22:26:02;17.01;66.62
43772;HTU21D;59066;54.782;32.024;2022-07-29T22:28:30;16.94;66.56
43772;HTU21D;59066;54.782;32.024;2022-07-29T22:30:57;17.00;67.06
43772;HTU21D;59066;54.782;32.024;2022-07-29T22:33:24;17.24;65.98
43772;HTU21D;59066;54.782;32.024;2022-07-29T22:35:52;17.31;65.47
43772;HTU21D;59066;54.782;32.024;2022-07-29T22:38:19;17.39;65.07
43772;HTU21D;59066;54.782;32.024;2022-07-29T22:40:48;17.41;64.92
43772;HTU21D;59066;54.782;32.024;2022-07-29T22:43:17;17.34;65.04
43772;HTU21D;59066;54.782;32.024;2022-07-29T22:45:44;17.26;65.21
43772;HTU21D;59066;54.782;32.024;2022-07-29T22:48:12;17.25;65.37
43772;HTU21D;59066;54.782;32.024;2022-07-29T22:50:39;17.16;65.54
43772;HTU21D;59066;54.782;32.024;2022-07-29T22:53:07;17.13;65.73
43772;HTU21D;59066;54.782;32.024;2022-07-29T22:55:35;17.09;65.79
43772;HTU21D;59066;54.782;32.024;2022-07-29T22:58:02;17.16;65.85
43772;HTU21D;59066;54.782;32.024;2022-07-29T23:00:30;17.08;65.72
43772;HTU21D;59066;54.782;32.024;2022-07-29T23:02:57;16.92;66.61
43772;HTU21D;59066;54.782;32.024;2022-07-29T23:05:24;17.03;66.20
43772;HTU21D;59066;54.782;32.024;2022-07-29T23:07:52;16.75;67.06
43772;HTU21D;59066;54.782;32.024;2022-07-29T23:10:19;16.84;66.86
43772;HTU21D;59066;54.782;32.024;2022-07-29T23:12:48;16.72;67.10
43772;HTU21D;59066;54.782;32.024;2022-07-29T23:15:15;16.48;67.32
43772;HTU21D;59066;54.782;32.024;2022-07-29T23:17:44;16.17;68.64
43772;HTU21D;59066;54.782;32.024;2022-07-29T23:20:17;16.24;69.09
43772;HTU21D;59066;54.782;32.024;2022-07-29T23:22:45;16.01;69.59
43772;HTU21D;59066;54.782;32.024;2022-07-29T23:25:12;15.97;69.73
43772;HTU21D;59066;54.782;32.024;2022-07-29T23:27:40;15.91;70.37
43772;HTU21D;59066;54.782;32.024;2022-07-29T23:30:08;15.86;70.52
43772;HTU21D;59066;54.782;32.024;2022-07-29T23:32:35;15.75;70.73
43772;HTU21D;59066;54.782;32.024;2022-07-29T23:35:03;15.71;71.10
43772;HTU21D;59066;54.782;32.024;2022-07-29T23:37:32;15.71;71.11
43772;HTU21D;59066;54.782;32.024;2022-07-29T23:39:59;15.60;71.51
43772;HTU21D;59066;54.782;32.024;2022-07-29T23:42:27;15.62;72.20
43772;HTU21D;59066;54.782;32.024;2022-07-29T23:44:54;15.80;71.13
43772;HTU21D;59066;54.782;32.024;2022-07-29T23:48:24;16.01;70.57
43772;HTU21D;59066;54.782;32.024;2022-07-29T23:50:51;16.06;70.10
43772;HTU21D;59066;54.782;32.024;2022-07-29T23:53:18;16.04;70.32
43772;HTU21D;59066;54.782;32.024;2022-07-29T23:55:46;16.02;70.45
43772;HTU21D;59066;54.782;32.024;2022-07-29T23:58:13;16.01;70.42
